Williamstown, Ohio
Current Conditions -  °F | °C
As of 12:53 AM on Monday 22 Dec 2014 (Local Time) from KFDY Reporting Station
Clear Clear  
Wind Chill: 20°   Ceiling: Unl
Heat Index: 28°   Visibility: 7mi
Dew Point: 22°   Wind: 8mph
Humidity: 78%   Direction: 110°ESE
Pressure: 30.13"   Gusts: NA
Location:  40.83°N, 83.65°W
Report Text: KFDY 220553Z AUTO 11007KT 7SM CLR M02/M06 A3013 RMK AO2 SLP207 T10221056 11011 21022 58014
Loading
Personal Weather Stations






























Interactive Weather Map New forecast layout! Learn more

10-Day Weather Forecast

Advertisements
Track Severe Weather on mobile